Time,TemperatureF,DewpointF,PressureIn,WindDirection,WindDirectionDegrees,WindSpeedMPH,WindSpeedGustMPH,Humidity,HourlyPrecipIn,Conditions,Clouds,dailyrainin,SoftwareType,DateUTC
2013-09-12 00:48:00,54.7,54.4,30.27,SW,225,0.0,0.0,99,0.00,,,0.00,pywws,2013-09-11 23:48:00,
2013-09-12 00:54:00,54.7,54.4,30.27,SW,225,0.0,0.0,99,0.00,,,0.00,pywws,2013-09-11 23:54:00,
2013-09-12 00:59:00,54.7,54.4,30.27,SW,225,0.0,0.0,99,0.00,,,0.00,pywws,2013-09-11 23:59:00,
2013-09-12 01:05:00,54.7,54.4,30.26,SW,225,0.0,0.0,99,0.00,,,0.00,pywws,2013-09-12 00:05:00,
2013-09-12 01:10:00,54.9,54.6,30.26,South,180,0.0,0.0,99,0.00,,,0.00,pywws,2013-09-12 00:10:00,
2013-09-12 01:16:00,54.9,54.6,30.26,West,270,0.0,0.0,99,0.00,,,0.00,pywws,2013-09-12 00:16:00,
2013-09-12 01:42:00,54.9,54.6,30.25,NNW,338,0.0,0.0,99,0.00,,,0.00,pywws,2013-09-12 00:42:00,
2013-09-12 01:48:00,54.9,54.6,30.26,South,180,0.0,0.0,99,0.00,,,0.00,pywws,2013-09-12 00:48:00,
2013-09-12 02:05:00,54.9,54.6,30.25,NW,315,0.0,0.0,99,0.00,,,0.00,pywws,2013-09-12 01:05:00,
2013-09-12 02:10:00,54.9,54.6,30.25,NW,315,0.0,0.0,99,0.00,,,0.00,pywws,2013-09-12 01:10:00,
2013-09-12 02:16:00,54.7,54.4,30.26,West,270,0.0,0.0,99,0.00,,,0.00,pywws,2013-09-12 01:16:00,
2013-09-12 02:22:00,54.7,54.4,30.26,West,270,0.0,0.0,99,0.00,,,0.00,pywws,2013-09-12 01:22:00,
2013-09-12 02:27:00,54.7,54.4,30.25,West,270,0.0,0.0,99,0.00,,,0.00,pywws,2013-09-12 01:27:00,
2013-09-12 02:33:00,54.5,54.2,30.25,NW,315,0.0,0.0,99,0.00,,,0.00,pywws,2013-09-12 01:33:00,
2013-09-12 02:38:00,54.9,54.6,30.25,West,270,0.0,0.0,99,0.00,,,0.00,pywws,2013-09-12 01:38:00,
2013-09-12 02:44:00,54.7,54.4,30.25,West,270,0.0,0.0,99,0.00,,,0.00,pywws,2013-09-12 01:44:00,
2013-09-12 02:49:00,54.7,54.4,30.25,West,270,0.0,0.0,99,0.00,,,0.00,pywws,2013-09-12 01:49:00,
2013-09-12 02:55:00,54.7,54.4,30.25,West,270,0.0,0.0,99,0.00,,,0.00,pywws,2013-09-12 01:55:00,
2013-09-12 03:01:00,54.7,54.4,30.25,West,270,0.0,0.0,99,0.00,,,0.00,pywws,2013-09-12 02:01:00,
2013-09-12 03:06:00,54.7,54.4,30.25,West,270,0.0,0.0,99,0.00,,,0.00,pywws,2013-09-12 02:06:00,
2013-09-12 03:33:00,54.7,54.4,30.25,West,270,0.0,0.0,99,0.00,,,0.00,pywws,2013-09-12 02:33:00,
2013-09-12 03:38:00,53.4,53.1,30.25,North,-999,3.1,0.0,99,0.00,,,0.00,pywws,2013-09-12 02:38:00,
2013-09-12 03:44:00,54.9,54.6,30.25,West,270,0.0,0.0,99,0.00,,,0.00,pywws,2013-09-12 02:44:00,
2013-09-12 03:50:00,54.9,54.6,30.25,West,270,0.0,0.0,99,0.00,,,0.00,pywws,2013-09-12 02:50:00,
2013-09-12 03:55:00,54.9,54.6,30.25,West,270,0.0,0.0,99,0.00,,,0.00,pywws,2013-09-12 02:55:00,
2013-09-12 04:01:00,54.9,54.6,30.25,West,270,0.0,0.0,99,0.00,,,0.00,pywws,2013-09-12 03:01:00,
2013-09-12 04:06:00,54.9,54.6,30.24,West,270,0.0,0.0,99,0.00,,,0.00,pywws,2013-09-12 03:06:00,
2013-09-12 04:12:00,54.9,54.6,30.24,East,90,0.0,0.0,99,0.00,,,0.00,pywws,2013-09-12 03:12:00,
2013-09-12 04:18:00,54.9,54.6,30.24,SE,135,0.0,0.0,99,0.00,,,0.00,pywws,2013-09-12 03:18:00,
2013-09-12 04:23:00,54.9,54.6,30.24,West,270,0.0,0.0,99,0.00,,,0.00,pywws,2013-09-12 03:23:00,
2013-09-12 04:29:00,54.7,54.4,30.24,SW,225,0.0,0.0,99,0.00,,,0.00,pywws,2013-09-12 03:29:00,
2013-09-12 04:34:00,54.7,54.4,30.24,NW,315,0.0,0.0,99,0.00,,,0.00,pywws,2013-09-12 03:34:00,
2013-09-12 04:40:00,54.7,54.4,30.24,SW,225,0.0,0.0,99,0.02,,,0.01,pywws,2013-09-12 03:40:00,
2013-09-12 04:46:00,54.7,54.4,30.24,NW,315,0.0,0.0,99,0.01,,,0.01,pywws,2013-09-12 03:46:00,
2013-09-12 04:51:00,54.7,54.4,30.24,SW,225,0.0,0.0,99,0.01,,,0.01,pywws,2013-09-12 03:51:00,
2013-09-12 04:57:00,54.7,54.4,30.24,North,0,0.0,0.0,99,0.01,,,0.01,pywws,2013-09-12 03:57:00,
2013-09-12 05:01:00,54.5,54.2,30.24,SE,135,0.0,0.0,99,0.01,,,0.01,pywws,2013-09-12 04:01:00,
2013-09-12 05:02:00,54.5,54.2,30.24,SE,135,0.0,0.0,99,0.01,,,0.01,pywws,2013-09-12 04:02:00,
2013-09-12 05:03:00,54.5,54.2,30.24,SE,135,0.0,0.0,99,0.01,,,0.01,pywws,2013-09-12 04:03:00,
2013-09-12 05:09:00,54.5,54.2,30.24,SE,135,0.0,0.0,99,0.01,,,0.01,pywws,2013-09-12 04:09:00,
2013-09-12 05:13:00,54.5,54.2,30.24,South,180,0.0,0.0,99,0.01,,,0.01,pywws,2013-09-12 04:13:00,
2013-09-12 05:14:00,54.5,54.2,30.24,South,180,0.0,0.0,99,0.01,,,0.01,pywws,2013-09-12 04:14:00,
2013-09-12 05:24:00,54.5,54.2,30.24,SE,135,0.0,0.0,99,0.01,,,0.01,pywws,2013-09-12 04:24:00,
2013-09-12 05:30:00,54.5,54.2,30.24,SE,135,0.0,0.0,99,0.01,,,0.01,pywws,2013-09-12 04:30:00,
2013-09-12 05:36:00,54.5,54.2,30.24,South,180,0.0,0.0,99,0.01,,,0.01,pywws,2013-09-12 04:36:00,
2013-09-12 05:41:00,54.5,54.2,30.24,South,180,0.0,0.0,99,0.00,,,0.01,pywws,2013-09-12 04:41:00,
2013-09-12 06:41:00,54.5,54.2,30.25,East,90,0.0,0.0,99,0.00,,,0.01,pywws,2013-09-12 05:41:00,
2013-09-12 06:46:00,54.5,54.2,30.25,East,90,0.0,0.0,99,0.00,,,0.01,pywws,2013-09-12 05:46:00,
2013-09-12 06:53:00,54.5,54.2,30.25,NE,45,0.0,0.0,99,0.00,,,0.01,pywws,2013-09-12 05:53:00,
2013-09-12 06:58:00,54.5,54.2,30.25,NE,45,0.0,0.0,99,0.00,,,0.01,pywws,2013-09-12 05:58:00,
2013-09-12 07:04:00,54.5,54.2,30.25,NE,45,0.0,0.0,99,0.00,,,0.01,pywws,2013-09-12 06:04:00,
2013-09-12 07:57:00,55.0,54.8,30.26,NW,315,0.0,0.0,99,0.00,,,0.01,pywws,2013-09-12 06:57:00,
2013-09-12 08:02:00,55.2,54.9,30.27,West,270,0.0,0.0,99,0.00,,,0.01,pywws,2013-09-12 07:02:00,
2013-09-12 08:08:00,55.2,54.9,30.27,West,270,0.0,0.0,99,0.00,,,0.01,pywws,2013-09-12 07:08:00,
2013-09-12 08:14:00,55.2,54.9,30.26,SSW,202,0.0,0.0,99,0.00,,,0.01,pywws,2013-09-12 07:14:00,
2013-09-12 08:19:00,55.2,54.9,30.26,West,270,0.0,0.0,99,0.00,,,0.01,pywws,2013-09-12 07:19:00,
2013-09-12 08:25:00,55.6,55.3,30.27,North,0,0.0,0.0,99,0.00,,,0.01,pywws,2013-09-12 07:25:00,
2013-09-12 08:30:00,55.6,55.3,30.27,East,90,0.0,1.6,99,0.01,,,0.02,pywws,2013-09-12 07:30:00,
2013-09-12 08:36:00,55.8,55.5,30.27,South,180,0.0,0.7,99,0.01,,,0.02,pywws,2013-09-12 07:36:00,
2013-09-12 08:41:00,55.9,55.7,30.27,North,0,0.0,0.0,99,0.01,,,0.02,pywws,2013-09-12 07:41:00,
2013-09-12 08:47:00,56.1,55.8,30.27,NE,45,0.0,0.0,99,0.01,,,0.02,pywws,2013-09-12 07:47:00,
2013-09-12 08:53:00,56.1,55.8,30.27,NE,45,0.0,0.0,99,0.01,,,0.02,pywws,2013-09-12 07:53:00,
2013-09-12 08:59:00,56.7,56.4,30.27,NE,45,0.0,0.0,99,0.01,,,0.02,pywws,2013-09-12 07:59:00,
2013-09-12 09:05:00,56.7,56.4,30.27,NE,45,0.0,0.0,99,0.01,,,0.02,pywws,2013-09-12 08:05:00,
2013-09-12 09:15:00,57.4,57.1,30.27,North,0,0.0,0.0,99,0.01,,,0.02,pywws,2013-09-12 08:15:00,
2013-09-12 09:21:00,57.4,57.1,30.27,North,0,0.0,0.0,99,0.01,,,0.02,pywws,2013-09-12 08:21:00,
2013-09-12 12:34:00,64.6,57.9,30.27,West,270,0.0,0.0,79,0.00,,,0.02,pywws,2013-09-12 11:34:00,
2013-09-12 12:40:00,64.6,57.9,30.27,West,270,0.0,0.0,79,0.00,,,0.02,pywws,2013-09-12 11:40:00,
2013-09-12 12:45:00,64.8,58.4,30.27,NE,45,0.0,48.8,80,0.00,,,0.02,pywws,2013-09-12 11:45:00,
2013-09-12 13:34:00,63.9,57.6,30.27,NNW,338,0.0,0.0,80,0.00,,,0.02,pywws,2013-09-12 12:34:00,
2013-09-12 13:40:00,0.0,-4.5,30.27,West,270,0.0,0.7,81,0.00,,,0.00,pywws,2013-09-12 12:40:00,
2013-09-12 17:00:00,72.5,59.2,30.24,SW,225,0.0,0.7,63,0.00,,,0.02,pywws,2013-09-12 16:00:00,
2013-09-12 17:06:00,73.4,58.2,30.24,WSW,248,1.6,3.8,59,0.00,,,0.02,pywws,2013-09-12 16:06:00,
2013-09-12 17:14:00,70.3,58.0,30.24,SW,225,0.0,0.7,65,0.00,,,0.02,pywws,2013-09-12 16:14:00,
2013-09-12 17:20:00,70.3,58.0,30.24,SW,225,0.0,0.7,65,0.00,,,0.02,pywws,2013-09-12 16:20:00,
2013-09-12 17:27:00,69.4,58.4,30.24,West,270,0.0,1.6,68,0.00,,,0.02,pywws,2013-09-12 16:27:00,
2013-09-12 17:33:00,69.4,58.4,30.24,West,270,0.0,1.6,68,0.00,,,0.02,pywws,2013-09-12 16:33:00,
2013-09-12 17:38:00,68.2,58.0,30.24,NW,315,0.0,0.0,70,0.00,,,0.02,pywws,2013-09-12 16:38:00,
2013-09-12 17:44:00,68.2,58.0,30.24,NW,315,0.0,0.0,70,0.00,,,0.02,pywws,2013-09-12 16:44:00,
2013-09-12 17:49:00,66.9,58.0,30.24,West,270,0.0,1.6,73,0.00,,,0.02,pywws,2013-09-12 16:49:00,
2013-09-12 17:58:00,66.6,58.4,30.24,South,180,0.0,0.0,75,0.00,,,0.02,pywws,2013-09-12 16:58:00,
2013-09-12 18:03:00,66.6,58.0,30.24,South,180,0.7,2.2,74,0.00,,,0.00,pywws,2013-09-12 17:03:00,
2013-09-12 18:09:00,66.7,58.2,30.24,West,270,0.0,1.6,74,0.00,,,0.02,pywws,2013-09-12 17:09:00,
2013-09-12 18:14:00,66.2,58.4,30.24,WSW,248,0.0,2.2,76,0.00,,,0.02,pywws,2013-09-12 17:14:00,
2013-09-12 18:20:00,65.5,58.1,30.24,NE,45,0.0,0.7,77,0.00,,,0.02,pywws,2013-09-12 17:20:00,
2013-09-12 18:25:00,65.5,58.1,30.24,South,180,0.0,2.2,77,0.00,,,0.02,pywws,2013-09-12 17:25:00,
2013-09-12 18:31:00,64.8,58.1,30.24,West,270,0.0,1.6,79,0.00,,,0.02,pywws,2013-09-12 17:31:00,
2013-09-12 18:37:00,64.8,58.1,30.24,West,270,0.0,1.6,79,0.00,,,0.02,pywws,2013-09-12 17:37:00,
2013-09-12 18:42:00,64.2,58.3,30.24,West,270,0.0,0.7,81,0.00,,,0.02,pywws,2013-09-12 17:42:00,
2013-09-12 18:48:00,64.0,58.4,30.24,SW,225,0.0,2.2,82,0.00,,,0.02,pywws,2013-09-12 17:48:00,
2013-09-12 18:54:00,63.9,58.3,30.24,South,180,0.0,1.6,82,0.00,,,0.02,pywws,2013-09-12 17:54:00,
2013-09-12 18:59:00,63.7,58.4,30.24,WSW,248,0.0,1.6,83,0.00,,,0.02,pywws,2013-09-12 17:59:00,
2013-09-12 19:10:00,63.3,58.1,30.24,South,180,0.0,1.6,83,0.00,,,0.02,pywws,2013-09-12 18:10:00,
2013-09-12 19:16:00,63.0,58.0,30.24,NE,45,0.0,1.6,84,0.00,,,0.02,pywws,2013-09-12 18:16:00,
2013-09-12 19:22:00,62.8,58.2,30.24,South,180,0.0,3.8,85,0.00,,,0.02,pywws,2013-09-12 18:22:00,
2013-09-12 19:27:00,62.4,57.8,30.24,NE,45,1.6,3.1,85,0.00,,,0.02,pywws,2013-09-12 18:27:00,
2013-09-12 19:33:00,62.4,58.2,30.24,West,270,0.7,3.1,86,0.00,,,0.02,pywws,2013-09-12 18:33:00,
2013-09-12 19:43:00,61.5,57.9,30.25,SE,135,1.6,3.1,88,0.00,,,0.02,pywws,2013-09-12 18:43:00,
2013-09-12 19:49:00,61.5,57.9,30.24,SW,225,0.0,2.2,88,0.00,,,0.02,pywws,2013-09-12 18:49:00,
2013-09-12 21:43:00,59.0,58.1,30.25,East,90,0.0,1.6,97,0.00,,,0.02,pywws,2013-09-12 20:43:00,
2013-09-12 21:49:00,59.0,58.1,30.24,East,90,0.0,1.6,97,0.00,,,0.02,pywws,2013-09-12 20:49:00,
2013-09-12 21:54:00,59.0,58.4,30.24,South,180,0.0,0.7,98,0.00,,,0.02,pywws,2013-09-12 20:54:00,
2013-09-12 22:07:00,59.7,59.4,30.24,SW,225,0.0,2.2,99,0.00,,,0.02,pywws,2013-09-12 21:07:00,
2013-09-12 22:13:00,59.9,59.6,30.24,SW,225,1.6,3.8,99,0.00,,,0.02,pywws,2013-09-12 21:13:00,
2013-09-12 22:18:00,59.9,59.6,30.24,West,270,0.0,0.7,99,0.00,,,0.02,pywws,2013-09-12 21:18:00,
2013-09-12 22:24:00,60.1,59.8,30.24,East,90,0.0,2.2,99,0.01,,,0.04,pywws,2013-09-12 21:24:00,
2013-09-12 22:30:00,60.3,60.0,30.24,NW,315,0.7,3.1,99,0.00,,,0.04,pywws,2013-09-12 21:30:00,
2013-09-12 22:35:00,60.3,60.0,30.24,SW,225,0.0,2.2,99,0.00,,,0.04,pywws,2013-09-12 21:35:00,
2013-09-12 22:42:00,60.4,60.2,30.24,East,90,0.7,2.2,99,0.00,,,0.04,pywws,2013-09-12 21:42:00,
2013-09-12 22:47:00,60.4,60.2,30.24,East,90,0.7,2.2,99,0.01,,,0.04,pywws,2013-09-12 21:47:00,